Time;durP1;ratioP1;P1;durP2;ratioP2;P2;SDS_P1;SDS_P2;PMS_P1;PMS_P2;Temp;Humidity;BMP_temperature;BMP_pressure;BME280_temperature;BME280_humidity;BME280_pressure;Samples;Min_cycle;Max_cycle;Signal;HPM_P1;HPM_P2
2022/04/10 00:01:12;;;;;;;1999.90;999.90;;;3.80;99.90;;;;;;5090856;28;20482;-68
2022/04/10 00:03:39;;;;;;;1999.90;999.90;;;3.90;99.90;;;;;;5093344;28;20506;-69
2022/04/10 00:06:05;;;;;;;1999.90;999.90;;;3.90;99.90;;;;;;5090183;28;20464;-69
2022/04/10 00:08:33;;;;;;;1999.90;999.90;;;3.90;99.90;;;;;;5088301;28;20868;-69
2022/04/10 00:11:00;;;;;;;1999.90;999.90;;;3.80;99.90;;;;;;5091952;28;20862;-69
2022/04/10 00:13:26;;;;;;;1999.90;999.90;;;3.80;99.90;;;;;;5091538;28;20440;-70
2022/04/10 00:15:53;;;;;;;1999.90;999.90;;;3.80;99.90;;;;;;5091480;28;20472;-67
2022/04/10 00:18:20;;;;;;;1999.90;999.90;;;3.70;99.90;;;;;;5087211;28;20448;-69
2022/04/10 00:20:46;;;;;;;1999.90;999.90;;;3.80;99.90;;;;;;5086263;28;20441;-69
2022/04/10 00:23:13;;;;;;;1999.90;999.90;;;3.80;99.90;;;;;;5086092;28;20456;-68
2022/04/10 00:25:41;;;;;;;1999.90;999.90;;;3.70;99.90;;;;;;5086648;28;20488;-69
2022/04/10 00:28:08;;;;;;;1999.90;999.90;;;3.80;99.90;;;;;;5085381;28;20452;-68
2022/04/10 00:30:35;;;;;;;1999.90;999.90;;;3.80;99.90;;;;;;5107778;22;20510;-66
2022/04/10 00:33:02;;;;;;;1999.90;999.90;;;3.70;99.90;;;;;;5092931;28;20460;-67
2022/04/10 00:35:29;;;;;;;1999.90;999.90;;;3.70;99.90;;;;;;5088555;28;20869;-69
2022/04/10 00:37:55;;;;;;;1999.90;999.90;;;3.70;99.90;;;;;;5086764;28;21219;-69
2022/04/10 00:40:22;;;;;;;1999.90;999.90;;;3.70;99.90;;;;;;5079723;28;20476;-68
2022/04/10 00:42:51;;;;;;;1999.90;999.90;;;3.90;99.90;;;;;;5083305;28;20496;-69
2022/04/10 00:45:20;;;;;;;1999.90;999.90;;;3.90;99.90;;;;;;5087739;28;20448;-70
2022/04/10 00:47:46;;;;;;;1999.90;999.90;;;3.90;99.90;;;;;;5089148;28;20465;-70
2022/04/10 00:50:15;;;;;;;1999.90;999.90;;;4.10;99.90;;;;;;5090854;28;20498;-69
2022/04/10 00:52:43;;;;;;;1999.90;999.90;;;4.10;99.90;;;;;;5091038;28;20680;-70
2022/04/10 00:55:10;;;;;;;1999.90;999.90;;;4.10;99.90;;;;;;5091534;28;20443;-69
2022/04/10 00:57:37;;;;;;;1999.90;999.90;;;4.10;99.90;;;;;;5090306;28;20452;-68
2022/04/10 01:00:08;;;;;;;1999.90;999.90;;;4.20;99.90;;;;;;5087661;28;20460;-69
2022/04/10 01:02:35;;;;;;;1999.90;999.90;;;4.20;99.90;;;;;;5088821;28;20458;-70
2022/04/10 01:05:02;;;;;;;1999.90;999.90;;;4.30;99.90;;;;;;5087701;28;20445;-69
2022/04/10 01:07:30;;;;;;;1999.90;999.90;;;4.30;99.90;;;;;;5085568;28;21016;-67
2022/04/10 01:09:57;;;;;;;1999.90;999.90;;;4.40;99.90;;;;;;5085891;28;20480;-68
2022/04/10 01:12:23;;;;;;;1999.90;999.90;;;4.40;99.90;;;;;;5090376;28;20483;-68
2022/04/10 01:14:51;;;;;;;1999.90;999.90;;;4.40;99.90;;;;;;5091220;28;20486;-70
2022/04/10 01:17:20;;;;;;;1999.90;999.90;;;4.40;99.90;;;;;;5092141;28;20493;-70
2022/04/10 01:19:46;;;;;;;1999.90;999.90;;;4.30;99.90;;;;;;5091252;28;20436;-68
2022/04/10 01:22:27;;;;;;;1999.90;999.90;;;4.30;99.90;;;;;;5090245;28;20498;-68
2022/04/10 01:24:54;;;;;;;1999.90;999.90;;;4.30;99.90;;;;;;5090877;28;20524;-69
2022/04/10 01:27:20;;;;;;;1999.90;999.90;;;4.30;99.90;;;;;;5089194;28;20445;-70
2022/04/10 01:29:47;;;;;;;1999.90;999.90;;;4.20;99.90;;;;;;5085893;28;21040;-68
2022/04/10 01:32:13;;;;;;;1999.90;999.90;;;4.20;99.90;;;;;;5087396;28;20546;-69
2022/04/10 01:34:42;;;;;;;1999.90;999.90;;;4.20;99.90;;;;;;5087919;28;20510;-70
2022/04/10 01:37:09;;;;;;;1999.90;999.90;;;4.20;99.90;;;;;;5090140;28;20451;-70
2022/04/10 01:39:37;;;;;;;1999.90;999.90;;;4.30;99.90;;;;;;5090852;28;20494;-69
2022/04/10 01:42:05;;;;;;;1999.90;999.90;;;4.30;99.90;;;;;;5090324;28;20457;-67
2022/04/10 01:44:40;;;;;;;1999.90;999.90;;;4.30;99.90;;;;;;5088479;28;20464;-69
2022/04/10 01:47:07;;;;;;;1999.90;999.90;;;4.20;99.90;;;;;;5085399;28;20444;-67
2022/04/10 01:49:34;;;;;;;1999.90;999.90;;;4.10;99.90;;;;;;5085944;28;20537;-70
2022/04/10 01:52:00;;;;;;;1999.90;999.90;;;4.20;99.90;;;;;;5087338;28;20440;-70
2022/04/10 01:54:27;;;;;;;1999.90;999.90;;;4.10;99.90;;;;;;5090880;28;20990;-70
2022/04/10 01:56:55;;;;;;;1999.90;999.90;;;4.60;99.90;;;;;;5091393;28;20495;-70
2022/04/10 01:59:22;;;;;;;1999.90;999.90;;;4.10;99.90;;;;;;5090861;28;20666;-69
2022/04/10 02:01:48;;;;;;;1999.90;999.90;;;4.10;99.90;;;;;;5090369;28;21154;-65
2022/04/10 02:04:15;;;;;;;1999.90;999.90;;;4.20;99.90;;;;;;5091646;28;20448;-67
2022/04/10 02:06:42;;;;;;;1999.90;999.90;;;4.10;99.90;;;;;;5090083;28;20490;-67
2022/04/10 02:09:09;;;;;;;1999.90;999.90;;;4.00;99.90;;;;;;5090550;28;20486;-67
2022/04/10 02:11:36;;;;;;;1999.90;999.90;;;4.00;99.90;;;;;;5086301;28;20461;-64
2022/04/10 02:14:04;;;;;;;1999.90;999.90;;;4.00;99.90;;;;;;5083239;28;20452;-67
2022/04/10 02:16:30;;;;;;;1999.90;999.90;;;4.20;99.90;;;;;;5084658;28;20456;-67
2022/04/10 02:18:57;;;;;;;1999.90;999.90;;;4.10;99.90;;;;;;5091858;28;20506;-67
2022/04/10 02:21:24;;;;;;;1999.90;999.90;;;4.00;99.90;;;;;;5088324;28;20525;-68
2022/04/10 02:23:50;;;;;;;1999.90;999.90;;;4.10;99.90;;;;;;5084781;28;20514;-66
2022/04/10 02:26:17;;;;;;;1999.90;999.90;;;4.10;99.90;;;;;;5084916;28;20444;-67
2022/04/10 02:28:44;;;;;;;1999.90;999.90;;;4.00;99.90;;;;;;5086781;28;20482;-67
2022/04/10 02:31:12;;;;;;;1999.90;999.90;;;4.10;99.90;;;;;;5089563;28;20517;-67
2022/04/10 02:33:39;;;;;;;1999.90;999.90;;;4.00;99.90;;;;;;5091600;28;20889;-67
2022/04/10 02:36:06;;;;;;;1999.90;999.90;;;4.00;99.90;;;;;;5089690;28;20468;-67
2022/04/10 02:38:33;;;;;;;1999.90;999.90;;;4.00;99.90;;;;;;5090092;28;20501;-66
2022/04/10 02:40:59;;;;;;;1999.90;999.90;;;4.10;99.90;;;;;;5086593;28;20506;-67
2022/04/10 02:43:26;;;;;;;1999.90;999.90;;;4.10;99.90;;;;;;5088090;28;20452;-69
2022/04/10 02:45:52;;;;;;;1999.90;999.90;;;4.00;99.90;;;;;;5090463;28;20452;-69
2022/04/10 02:48:20;;;;;;;1999.90;999.90;;;4.00;99.90;;;;;;5091539;28;20797;-69
2022/04/10 02:50:47;;;;;;;1999.90;999.90;;;4.00;99.90;;;;;;5088999;28;20485;-69
2022/04/10 02:53:14;;;;;;;1999.90;999.90;;;4.00;99.90;;;;;;5089498;28;20444;-68
2022/04/10 02:55:40;;;;;;;1999.90;999.90;;;4.00;99.90;;;;;;5085834;28;20456;-69
2022/04/10 02:58:07;;;;;;;1999.90;999.90;;;4.00;99.90;;;;;;5085728;28;20456;-69
2022/04/10 03:00:34;;;;;;;1999.90;999.90;;;4.00;99.90;;;;;;5088426;28;20525;-68
2022/04/10 03:03:00;;;;;;;1999.90;999.90;;;3.90;99.90;;;;;;5092452;28;20879;-69
2022/04/10 03:05:28;;;;;;;1999.90;999.90;;;3.90;99.90;;;;;;5093583;28;20956;-69
2022/04/10 03:07:55;;;;;;;1999.90;999.90;;;3.80;99.90;;;;;;5093406;28;21198;-69
2022/04/10 03:10:22;;;;;;;1999.90;999.90;;;3.90;99.90;;;;;;5092024;28;20480;-69
2022/04/10 03:12:49;;;;;;;1999.90;999.90;;;3.90;99.90;;;;;;5089398;28;20482;-69
2022/04/10 03:15:15;;;;;;;1999.90;999.90;;;3.80;99.90;;;;;;5090527;28;20440;-68
2022/04/10 03:17:42;;;;;;;1999.90;999.90;;;3.80;99.90;;;;;;5094447;28;20540;-69
2022/04/10 03:20:11;;;;;;;1999.90;999.90;;;3.80;99.90;;;;;;5093300;28;20526;-69
2022/04/10 03:22:39;;;;;;;1999.90;999.90;;;3.80;99.90;;;;;;5092367;28;20449;-69
2022/04/10 03:25:07;;;;;;;1999.90;999.90;;;3.70;99.90;;;;;;5093166;28;20452;-69
2022/04/10 03:27:33;;;;;;;1999.90;999.90;;;3.80;99.90;;;;;;5094721;28;20478;-69
2022/04/10 03:30:00;;;;;;;1999.90;999.90;;;3.80;99.90;;;;;;5093670;28;20480;-70
2022/04/10 03:32:27;;;;;;;1999.90;999.90;;;3.80;99.90;;;;;;5090094;28;20464;-70
2022/04/10 03:34:53;;;;;;;1999.90;999.90;;;3.90;99.90;;;;;;5086934;28;21105;-68
2022/04/10 03:37:20;;;;;;;1999.90;999.90;;;3.90;99.90;;;;;;5089344;28;20460;-68
2022/04/10 03:39:48;;;;;;;1999.90;999.90;;;3.90;99.90;;;;;;5093078;28;20497;-69
2022/04/10 03:42:15;;;;;;;1999.90;999.90;;;4.00;99.90;;;;;;5092871;28;20449;-69
2022/04/10 03:44:41;;;;;;;1999.90;999.90;;;4.00;99.90;;;;;;5092582;28;20449;-69
2022/04/10 03:47:08;;;;;;;1999.90;999.90;;;4.10;99.90;;;;;;5092235;28;20502;-69
2022/04/10 03:49:35;;;;;;;1999.90;999.90;;;4.10;99.90;;;;;;5088314;28;20494;-69
2022/04/10 03:52:01;;;;;;;1999.90;999.90;;;4.10;99.90;;;;;;5091236;28;20476;-68
2022/04/10 03:54:28;;;;;;;1999.90;999.90;;;4.10;99.90;;;;;;5088697;28;20445;-68
2022/04/10 03:56:56;;;;;;;1999.90;999.90;;;4.10;99.90;;;;;;5089016;28;20545;-69
2022/04/10 03:59:24;;;;;;;1999.90;999.90;;;4.00;99.90;;;;;;5090623;28;20517;-70
2022/04/10 04:01:51;;;;;;;1999.90;999.90;;;4.00;99.90;;;;;;5089195;28;20740;-70
2022/04/10 04:04:17;;;;;;;1999.90;999.90;;;4.00;99.90;;;;;;5090867;28;20953;-68
2022/04/10 04:06:44;;;;;;;1999.90;999.90;;;3.90;99.90;;;;;;5094241;28;20990;-69
2022/04/10 04:09:11;;;;;;;1999.90;999.90;;;4.00;99.90;;;;;;5092859;28;20452;-69
2022/04/10 04:11:37;;;;;;;1999.90;999.90;;;3.90;99.90;;;;;;5092960;28;20491;-69
2022/04/10 04:14:07;;;;;;;1999.90;999.90;;;4.00;99.90;;;;;;5085677;28;20502;-69
2022/04/10 04:16:34;;;;;;;1999.90;999.90;;;3.90;99.90;;;;;;5088738;28;20457;-69
2022/04/10 04:19:01;;;;;;;1999.90;999.90;;;3.90;99.90;;;;;;5088219;28;20872;-67
2022/04/10 04:21:27;;;;;;;1999.90;999.90;;;3.90;99.90;;;;;;5087686;28;21261;-69
2022/04/10 04:23:54;;;;;;;1999.90;999.90;;;3.90;99.90;;;;;;5089048;28;20497;-69
2022/04/10 04:26:21;;;;;;;1999.90;999.90;;;3.90;99.90;;;;;;5092079;28;20445;-69
2022/04/10 04:28:47;;;;;;;1999.90;999.90;;;3.90;99.90;;;;;;5094444;28;20444;-69
2022/04/10 04:31:15;;;;;;;1999.90;999.90;;;3.90;99.90;;;;;;5093068;28;20887;-69
2022/04/10 04:33:42;;;;;;;1999.90;999.90;;;3.90;99.90;;;;;;5093642;28;20448;-69
2022/04/10 04:36:08;;;;;;;1999.90;999.90;;;3.90;99.90;;;;;;5090674;28;20470;-68
2022/04/10 04:38:35;;;;;;;1999.90;999.90;;;3.90;99.90;;;;;;5088769;28;20460;-68
2022/04/10 04:41:02;;;;;;;1999.90;999.90;;;3.90;99.90;;;;;;5087678;28;20461;-70
2022/04/10 04:43:28;;;;;;;1999.90;999.90;;;3.90;99.90;;;;;;5088042;28;20945;-68
2022/04/10 04:45:55;;;;;;;1999.90;999.90;;;3.90;99.90;;;;;;5088302;28;20460;-68
2022/04/10 04:48:23;;;;;;;1999.90;999.90;;;4.00;99.90;;;;;;5087773;28;20457;-69
2022/04/10 04:50:49;;;;;;;1999.90;999.90;;;4.00;99.90;;;;;;5088011;28;20525;-69
2022/04/10 04:53:16;;;;;;;1999.90;999.90;;;4.00;99.90;;;;;;5092388;28;21014;-69
2022/04/10 04:55:43;;;;;;;1999.90;999.90;;;4.00;99.90;;;;;;5093426;28;20452;-69
2022/04/10 04:58:09;;;;;;;1999.90;999.90;;;4.00;99.90;;;;;;5098678;28;20466;-69
2022/04/10 05:00:36;;;;;;;1999.90;999.90;;;4.00;99.90;;;;;;5105402;28;20487;-69
2022/04/10 05:03:03;;;;;;;1999.90;999.90;;;4.00;99.90;;;;;;5103023;28;20448;-69
2022/04/10 05:05:31;;;;;;;1999.90;999.90;;;4.00;99.90;;;;;;5101779;28;20505;-70
2022/04/10 05:07:58;;;;;;;1999.90;999.90;;;3.90;99.90;;;;;;5106086;28;20953;-70
2022/04/10 05:10:24;;;;;;;1999.90;999.90;;;4.00;99.90;;;;;;5106910;28;20502;-69
2022/04/10 05:12:51;;;;;;;1999.90;999.90;;;4.00;99.90;;;;;;5098557;28;20449;-68
2022/04/10 05:15:18;;;;;;;1999.90;999.90;;;4.10;99.90;;;;;;5091442;28;20452;-70
2022/04/10 05:17:44;;;;;;;1999.90;999.90;;;4.10;99.90;;;;;;5091860;28;20445;-70
2022/04/10 05:20:11;;;;;;;1999.90;999.90;;;4.20;99.90;;;;;;5088455;28;20525;-70
2022/04/10 05:22:39;;;;;;;1999.90;999.90;;;4.30;99.90;;;;;;5087768;28;22002;-68
2022/04/10 05:25:08;;;;;;;1999.90;999.90;;;4.40;99.90;;;;;;5086061;28;20871;-68
2022/04/10 05:27:34;;;;;;;1999.90;999.90;;;4.50;99.90;;;;;;5086493;28;20984;-69
2022/04/10 05:30:01;;;;;;;1999.90;999.90;;;4.80;99.90;;;;;;5087177;28;21012;-70
2022/04/10 05:32:28;;;;;;;1999.90;999.90;;;4.90;99.90;;;;;;5091693;28;20476;-69
2022/04/10 05:34:55;;;;;;;1999.90;999.90;;;5.10;99.90;;;;;;5092251;28;20453;-68
2022/04/10 05:37:21;;;;;;;1999.90;999.90;;;5.10;99.90;;;;;;5092488;28;20456;-70
2022/04/10 05:39:49;;;;;;;1999.90;999.90;;;5.10;99.90;;;;;;5090588;28;20444;-69
2022/04/10 05:42:16;;;;;;;1999.90;999.90;;;5.10;99.90;;;;;;5088769;28;20449;-69
2022/04/10 05:44:42;;;;;;;1999.90;999.90;;;5.30;99.90;;;;;;5083159;28;20525;-69
2022/04/10 05:47:09;;;;;;;1999.90;999.90;;;5.30;99.90;;;;;;5084335;28;20517;-67
2022/04/10 05:49:36;;;;;;;1999.90;999.90;;;5.30;99.90;;;;;;5088116;28;20999;-69
2022/04/10 05:52:02;;;;;;;1999.90;999.90;;;5.40;99.90;;;;;;5089171;28;20526;-69
2022/04/10 05:54:29;;;;;;;1999.90;999.90;;;5.30;99.90;;;;;;5086285;28;20452;-69
2022/04/10 05:56:57;;;;;;;1999.90;999.90;;;5.30;99.90;;;;;;5087721;28;20456;-69
2022/04/10 05:59:23;;;;;;;1999.90;999.90;;;5.20;99.90;;;;;;5084689;28;20548;-69
2022/04/10 06:01:50;;;;;;;1999.90;999.90;;;5.10;99.90;;;;;;5085507;28;20550;-67
2022/04/10 06:04:17;;;;;;;1999.90;999.90;;;5.00;99.90;;;;;;5086036;28;20456;-68
2022/04/10 06:06:44;;;;;;;1999.90;999.90;;;4.80;99.90;;;;;;5084954;28;20464;-67
2022/04/10 06:09:11;;;;;;;1999.90;999.90;;;4.80;99.90;;;;;;5086414;28;20497;-69
2022/04/10 06:11:37;;;;;;;1999.90;999.90;;;4.70;99.90;;;;;;5091538;28;21166;-69
2022/04/10 06:14:06;;;;;;;1999.90;999.90;;;4.60;99.90;;;;;;5091410;28;20469;-69
2022/04/10 06:16:32;;;;;;;1999.90;999.90;;;4.60;99.90;;;;;;5092364;28;20917;-69
2022/04/10 06:18:59;;;;;;;1999.90;999.90;;;4.80;99.90;;;;;;5091848;28;20476;-69
2022/04/10 06:21:26;;;;;;;1999.90;999.90;;;4.90;99.90;;;;;;5086823;28;20464;-69
2022/04/10 06:23:52;;;;;;;1999.90;999.90;;;4.90;99.90;;;;;;5086515;28;20448;-68
2022/04/10 06:26:19;;;;;;;1999.90;999.90;;;5.10;99.90;;;;;;5087751;28;20471;-70
2022/04/10 06:28:45;;;;;;;1999.90;999.90;;;5.20;99.90;;;;;;5089740;28;20502;-69
2022/04/10 06:31:13;;;;;;;1999.90;999.90;;;5.20;99.90;;;;;;5114142;22;20488;-71
2022/04/10 06:33:40;;;;;;;1999.90;999.90;;;5.30;99.90;;;;;;5095426;28;20866;-72
2022/04/10 06:36:07;;;;;;;1999.90;999.90;;;5.40;99.90;;;;;;5100589;28;20448;-71
2022/04/10 06:38:34;;;;;;;1999.90;999.90;;;5.40;99.90;;;;;;5099515;28;20498;-71
2022/04/10 06:41:01;;;;;;;1999.90;999.90;;;5.40;99.90;;;;;;5100143;28;20484;-72
2022/04/10 06:43:28;;;;;;;1999.90;999.90;;;5.50;99.90;;;;;;5100508;28;20456;-70
2022/04/10 06:45:55;;;;;;;1999.90;999.90;;;5.60;99.90;;;;;;5094279;28;20453;-71
2022/04/10 06:48:23;;;;;;;1999.90;999.90;;;5.80;99.90;;;;;;5100069;28;20451;-73
2022/04/10 06:50:50;;;;;;;1999.90;999.90;;;5.90;99.90;;;;;;5099628;28;20499;-71
2022/04/10 06:53:17;;;;;;;1999.90;999.90;;;6.00;99.90;;;;;;5098985;28;20455;-71
2022/04/10 06:55:43;;;;;;;1999.90;999.90;;;6.00;99.90;;;;;;5100269;28;20447;-70
2022/04/10 06:58:10;;;;;;;1999.90;999.90;;;6.20;99.90;;;;;;5096818;28;20449;-71
2022/04/10 07:00:38;;;;;;;1999.90;999.90;;;6.50;99.90;;;;;;5096142;28;20536;-71
2022/04/10 07:03:05;;;;;;;1999.90;999.90;;;6.40;99.90;;;;;;5097345;28;20472;-68
2022/04/10 07:05:33;;;;;;;1999.90;999.90;;;6.40;99.90;;;;;;5093774;28;20451;-73
2022/04/10 07:08:00;;;;;;;1999.90;999.90;;;6.50;99.90;;;;;;5099636;28;20502;-71
2022/04/10 07:10:28;;;;;;;1999.90;999.90;;;6.40;99.90;;;;;;5099127;28;20451;-72
2022/04/10 07:12:55;;;;;;;1999.90;999.90;;;6.60;99.90;;;;;;5098790;28;20512;-71
2022/04/10 07:15:21;;;;;;;1999.90;999.90;;;6.70;99.90;;;;;;5093748;28;20455;-71
2022/04/10 07:17:48;;;;;;;1999.90;999.90;;;6.80;99.90;;;;;;5097409;28;20459;-71
2022/04/10 07:20:15;;;;;;;1999.90;999.90;;;6.90;99.90;;;;;;5097587;28;20448;-73
2022/04/10 07:25:36;;;;;;;1999.90;999.90;;;6.90;99.90;;;;;;5073097;28;20520;-71
2022/04/10 07:28:03;;;;;;;1999.90;999.90;;;6.70;99.90;;;;;;5093242;28;20457;-69
2022/04/10 07:30:30;;;;;;;1999.90;999.90;;;6.70;99.90;;;;;;5092256;28;20472;-69
2022/04/10 07:32:58;;;;;;;1999.90;999.90;;;6.80;99.90;;;;;;5093201;28;20484;-71
2022/04/10 07:35:25;;;;;;;1999.90;999.90;;;6.90;99.90;;;;;;5098701;28;20440;-71
2022/04/10 07:37:53;;;;;;;1999.90;999.90;;;7.00;99.90;;;;;;5097483;28;20505;-72
2022/04/10 07:40:20;;;;;;;1999.90;999.90;;;7.20;99.90;;;;;;5090625;28;20445;-71
2022/04/10 07:42:47;;;;;;;1999.90;999.90;;;7.10;99.90;;;;;;5094481;28;20479;-71
2022/04/10 07:47:25;;;;;;;1999.90;999.90;;;6.90;99.90;;;;;;5097429;28;20520;-71
2022/04/10 07:48:01;;;;;;;1999.90;999.90;;;7.00;99.90;;;;;;5098551;28;20523;-72
2022/04/10 07:50:28;;;;;;;1999.90;999.90;;;6.90;99.90;;;;;;5098732;28;20463;-71
2022/04/10 07:52:57;;;;;;;1999.90;999.90;;;7.00;99.90;;;;;;5096228;28;20945;-71
2022/04/10 07:55:25;;;;;;;1999.90;999.90;;;7.20;99.90;;;;;;5098172;28;20482;-72
2022/04/10 07:57:52;;;;;;;1999.90;999.90;;;7.20;99.90;;;;;;5098900;28;20441;-72
2022/04/10 08:00:19;;;;;;;1999.90;999.90;;;7.30;99.90;;;;;;5097229;28;20448;-70
2022/04/10 08:02:47;;;;;;;1999.90;999.90;;;7.50;99.90;;;;;;5097198;28;20445;-69
2022/04/10 08:05:14;;;;;;;1999.90;999.90;;;7.70;99.90;;;;;;5097064;28;20447;-72
2022/04/10 08:07:41;;;;;;;1999.90;999.90;;;7.70;99.90;;;;;;5098642;28;20456;-72
2022/04/10 08:10:10;;;;;;;1999.90;999.90;;;7.90;99.90;;;;;;5098728;28;20535;-71
2022/04/10 08:12:37;;;;;;;1999.90;999.90;;;7.80;99.90;;;;;;5097720;28;20491;-71
2022/04/10 08:15:05;;;;;;;1999.90;999.90;;;7.80;99.90;;;;;;5097070;28;20510;-71
2022/04/10 08:17:32;;;;;;;1999.90;999.90;;;7.90;99.90;;;;;;5095315;28;20509;-71
2022/04/10 08:20:03;;;;;;;1999.90;999.90;;;8.00;99.90;;;;;;5097421;28;20451;-71
2022/04/10 08:22:31;;;;;;;1999.90;999.90;;;8.20;99.90;;;;;;5081235;28;20535;-72
2022/04/10 08:25:01;;;;;;;1999.90;999.90;;;8.40;99.90;;;;;;5089579;28;20455;-72
2022/04/10 08:27:29;;;;;;;1999.90;999.90;;;8.40;99.90;;;;;;5097264;28;20881;-67
2022/04/10 08:29:57;;;;;;;1999.90;999.90;;;8.10;99.90;;;;;;5096987;28;20513;-72
2022/04/10 08:32:24;;;;;;;1999.90;999.90;;;8.20;99.90;;;;;;5096091;28;20869;-71
2022/04/10 08:34:51;;;;;;;1999.90;999.90;;;8.30;99.90;;;;;;5097284;28;20445;-71
2022/04/10 08:37:18;;;;;;;1999.90;999.90;;;8.40;99.90;;;;;;5096495;28;20470;-71
2022/04/10 08:39:45;;;;;;;1999.90;999.90;;;8.20;99.90;;;;;;5096896;28;20518;-70
2022/04/10 08:42:11;;;;;;;1999.90;999.90;;;8.10;99.90;;;;;;5096501;28;20901;-72
2022/04/10 08:44:40;;;;;;;1999.90;999.90;;;8.30;99.90;;;;;;5096784;28;20855;-71
2022/04/10 08:47:07;;;;;;;1999.90;999.90;;;8.40;99.90;;;;;;5097557;28;20536;-71
2022/04/10 08:49:36;;;;;;;1999.90;999.90;;;8.50;99.90;;;;;;5096458;28;20448;-72
2022/04/10 08:52:04;;;;;;;1999.90;999.90;;;8.40;99.90;;;;;;5094808;28;20476;-70
2022/04/10 08:54:30;;;;;;;1999.90;999.90;;;8.60;99.90;;;;;;5094724;28;20472;-72
2022/04/10 08:56:57;;;;;;;1999.90;999.90;;;8.90;99.90;;;;;;5093333;28;20441;-72
2022/04/10 08:59:24;;;;;;;1999.90;999.90;;;8.70;99.90;;;;;;5094952;28;20436;-73
2022/04/10 09:01:56;;;;;;;1999.90;999.90;;;8.40;99.90;;;;;;5093671;28;20479;-71
2022/04/10 09:04:23;;;;;;;1999.90;999.90;;;8.50;99.90;;;;;;5094845;28;20436;-72
2022/04/10 09:06:59;;;;;;;1999.90;999.90;;;9.00;99.90;;;;;;5095144;28;20448;-75
2022/04/10 09:09:26;;;;;;;1999.90;999.90;;;9.00;99.90;;;;;;5090340;28;20447;-70
2022/04/10 09:11:54;;;;;;;1999.90;999.90;;;9.10;99.90;;;;;;5093998;28;20485;-72
2022/04/10 09:14:22;;;;;;;1999.90;999.90;;;9.40;99.90;;;;;;5093013;28;20451;-71
2022/04/10 09:17:10;;;;;;;1999.90;999.90;;;9.10;99.90;;;;;;5091208;28;20505;-71
2022/04/10 09:19:37;;;;;;;1999.90;999.90;;;8.80;99.90;;;;;;5092236;28;20444;-71
2022/04/10 09:22:25;;;;;;;1999.90;999.90;;;8.70;99.90;;;;;;5093276;28;20486;-71
2022/04/10 09:25:17;;;;;;;1999.90;999.90;;;8.80;99.90;;;;;;5093076;28;20451;-72
2022/04/10 09:27:46;;;;;;;1999.90;999.90;;;8.90;99.90;;;;;;5054178;28;20950;-72
2022/04/10 09:30:14;;;;;;;1999.90;999.90;;;9.70;99.90;;;;;;5074433;28;20954;-71
2022/04/10 09:32:44;;;;;;;1999.90;999.90;;;9.80;99.90;;;;;;5090428;28;20473;-72
2022/04/10 09:35:13;;;;;;;1999.90;999.90;;;9.50;99.90;;;;;;5095718;28;20535;-72
2022/04/10 09:37:44;;;;;;;1999.90;999.90;;;9.20;99.90;;;;;;5095362;28;20453;-72
2022/04/10 09:40:30;;;;;;;1999.90;999.90;;;9.30;99.90;;;;;;5095257;28;20472;-71
2022/04/10 09:43:01;;;;;;;1999.90;999.90;;;9.40;99.90;;;;;;5094040;28;20854;-72
2022/04/10 09:45:30;;;;;;;1999.90;999.90;;;9.30;99.90;;;;;;5094871;28;20851;-71
2022/04/10 09:47:58;;;;;;;1999.90;999.90;;;9.10;99.90;;;;;;5094607;28;20451;-71
2022/04/10 09:50:32;;;;;;;1999.90;999.90;;;9.20;99.90;;;;;;5094817;28;20459;-71
2022/04/10 09:53:06;;;;;;;1999.90;999.90;;;9.10;99.90;;;;;;5094518;28;20475;-71
2022/04/10 09:55:38;;;;;;;1999.90;999.90;;;8.80;99.90;;;;;;5094209;28;20471;-71
2022/04/10 09:58:07;;;;;;;1999.90;999.90;;;8.60;99.90;;;;;;5095387;28;20497;-70
2022/04/10 10:00:36;;;;;;;1999.90;999.90;;;7.90;99.90;;;;;;5095607;28;20465;-72
2022/04/10 10:03:05;;;;;;;1999.90;999.90;;;8.10;99.90;;;;;;5094695;28;20449;-72
2022/04/10 10:05:32;;;;;;;1999.90;999.90;;;8.10;99.90;;;;;;5094656;28;20457;-71
2022/04/10 10:07:59;;;;;;;1999.90;999.90;;;8.30;99.90;;;;;;5094112;28;20448;-70
2022/04/10 10:10:30;;;;;;;1999.90;999.90;;;8.10;99.90;;;;;;5095403;28;20446;-72
2022/04/10 10:12:59;;;;;;;1999.90;999.90;;;7.70;99.90;;;;;;5094930;28;20475;-71
2022/04/10 10:15:26;;;;;;;1999.90;999.90;;;7.40;99.90;;;;;;5095840;28;20470;-71
2022/04/10 10:17:53;;;;;;;1999.90;999.90;;;7.20;99.90;;;;;;5095513;28;20467;-72
2022/04/10 10:20:22;;;;;;;1999.90;999.90;;;7.20;99.90;;;;;;5094810;28;20573;-72
2022/04/10 10:22:50;;;;;;;1999.90;999.90;;;7.50;99.90;;;;;;5093787;28;20445;-71
2022/04/10 10:25:24;;;;;;;1999.90;999.90;;;8.00;99.90;;;;;;5093929;28;20487;-70
2022/04/10 10:28:18;;;;;;;1999.90;999.90;;;8.30;99.90;;;;;;5094538;28;20794;-70
2022/04/10 10:30:52;;;;;;;1999.90;999.90;;;8.80;99.90;;;;;;5076358;28;20475;-71
2022/04/10 10:33:21;;;;;;;1999.90;999.90;;;9.10;99.90;;;;;;5093779;28;20571;-71
2022/04/10 10:35:52;;;;;;;1999.90;999.90;;;9.00;99.90;;;;;;5094286;28;20440;-71
2022/04/10 10:38:21;;;;;;;1999.90;999.90;;;8.60;99.90;;;;;;5093829;28;20444;-72
2022/04/10 10:40:47;;;;;;;1999.90;999.90;;;8.30;99.90;;;;;;5092896;28;20524;-72
2022/04/10 10:43:19;;;;;;;1999.90;999.90;;;8.20;99.90;;;;;;5094072;28;20467;-71
2022/04/10 10:45:46;;;;;;;1999.90;999.90;;;8.10;99.90;;;;;;5094796;28;20535;-72
2022/04/10 10:48:34;;;;;;;1999.90;999.90;;;7.90;99.90;;;;;;5093596;28;20474;-71
2022/04/10 10:51:03;;;;;;;1999.90;999.90;;;8.20;99.90;;;;;;5093305;28;20525;-71
2022/04/10 10:53:44;;;;;;;1999.90;999.90;;;8.70;99.90;;;;;;5093648;28;20488;-71
2022/04/10 10:56:15;;;;;;;1999.90;999.90;;;8.70;99.90;;;;;;5093848;28;20459;-71
2022/04/10 10:58:42;;;;;;;1999.90;999.90;;;9.10;99.90;;;;;;5093079;28;20460;-69
2022/04/10 11:01:09;;;;;;;1999.90;999.90;;;9.30;99.90;;;;;;5093122;28;20468;-70
2022/04/10 11:04:00;;;;;;;1999.90;999.90;;;9.80;99.90;;;;;;5090137;28;20964;-72
2022/04/10 11:06:29;;;;;;;1999.90;999.90;;;10.20;99.90;;;;;;5093083;28;20996;-71
2022/04/10 11:08:56;;;;;;;1999.90;999.90;;;10.30;99.90;;;;;;5093428;28;20440;-72
2022/04/10 11:11:35;;;;;;;1999.90;999.90;;;10.20;99.90;;;;;;5093145;28;20461;-71
2022/04/10 11:14:03;;;;;;;1999.90;999.90;;;10.20;99.90;;;;;;5093082;28;20551;-71
2022/04/10 11:16:29;;;;;;;1999.90;999.90;;;9.90;99.90;;;;;;5093842;28;20611;-71
2022/04/10 11:19:02;;;;;;;1999.90;999.90;;;9.50;99.90;;;;;;5094635;28;20497;-71
2022/04/10 11:21:31;;;;;;;1999.90;999.90;;;9.00;99.90;;;;;;5096913;28;20526;-72
2022/04/10 11:23:59;;;;;;;1999.90;999.90;;;8.40;99.90;;;;;;5096290;28;21050;-71
2022/04/10 11:26:35;;;;;;;1999.90;999.90;;;8.20;99.90;;;;;;5096172;28;21085;-71
2022/04/10 11:29:06;;;;;;;1999.90;999.90;;;8.30;99.90;;;;;;5096842;28;20440;-70
2022/04/10 11:31:35;;;;;;;1999.90;999.90;;;8.70;99.90;;;;;;5095898;28;20530;-70
2022/04/10 11:34:09;;;;;;;1999.90;999.90;;;9.10;99.90;;;;;;5096407;28;20480;-72
2022/04/10 11:36:52;;;;;;;1999.90;999.90;;;9.40;99.90;;;;;;5096648;28;20452;-71
2022/04/10 11:39:24;;;;;;;1999.90;999.90;;;10.00;99.90;;;;;;5096625;28;20455;-71
2022/04/10 11:41:51;;;;;;;1999.90;999.90;;;10.30;99.90;;;;;;5096156;28;20529;-71
2022/04/10 11:44:19;;;;;;;1999.90;999.90;;;9.70;99.90;;;;;;5096792;28;20444;-72
2022/04/10 11:46:46;;;;;;;1999.90;999.90;;;9.40;99.90;;;;;;5096828;28;20445;-71
2022/04/10 11:49:13;;;;;;;1999.90;999.90;;;9.30;99.90;;;;;;5096752;28;20528;-71
2022/04/10 11:51:55;;;;;;;1999.90;999.90;;;9.40;99.90;;;;;;5095372;28;20471;-71
2022/04/10 11:54:26;;;;;;;1999.90;999.90;;;9.50;99.90;;;;;;5096227;28;20483;-71
2022/04/10 11:56:53;;;;;;;1999.90;999.90;;;9.50;99.90;;;;;;5096620;28;20450;-72
2022/04/10 11:59:20;;;;;;;1999.90;999.90;;;9.60;99.90;;;;;;5095532;28;20460;-72
2022/04/10 12:01:49;;;;;;;1999.90;999.90;;;9.60;99.90;;;;;;5095973;28;20499;-71
2022/04/10 12:04:18;;;;;;;1999.90;999.90;;;9.50;99.90;;;;;;5096838;28;20448;-72
2022/04/10 12:06:44;;;;;;;1999.90;999.90;;;9.40;99.90;;;;;;5096812;28;20448;-71
2022/04/10 12:09:13;;;;;;;1999.90;999.90;;;9.60;99.90;;;;;;5095244;28;20810;-71
2022/04/10 12:11:40;;;;;;;1999.90;999.90;;;10.00;99.90;;;;;;5095760;28;20468;-71
2022/04/10 12:14:22;;;;;;;1999.90;999.90;;;9.90;99.90;;;;;;5096320;28;20561;-72
2022/04/10 12:16:51;;;;;;;1999.90;999.90;;;9.30;99.90;;;;;;5096918;28;20460;-72